createdAt,value
2018-07-15T00:00:15.201Z,99.90
2018-07-15T00:02:45.849Z,99.90
2018-07-15T00:05:16.490Z,99.90
2018-07-15T00:07:47.713Z,99.90
2018-07-15T00:10:18.366Z,99.90
2018-07-15T00:12:49.045Z,99.90
2018-07-15T00:15:21.103Z,99.90
2018-07-15T00:17:51.779Z,99.90
2018-07-15T00:20:22.460Z,99.90
2018-07-15T00:22:54.778Z,99.90
2018-07-15T00:25:25.973Z,99.90
2018-07-15T00:27:57.096Z,99.90
2018-07-15T00:30:28.451Z,99.90
2018-07-15T00:32:59.183Z,99.90
2018-07-15T00:35:29.845Z,99.90
2018-07-15T00:38:00.930Z,99.90
2018-07-15T00:40:31.576Z,99.90
2018-07-15T00:43:03.136Z,99.90
2018-07-15T00:45:34.633Z,99.90
2018-07-15T00:48:05.893Z,99.90
2018-07-15T00:50:37.268Z,99.90
2018-07-15T00:53:08.515Z,99.90
2018-07-15T00:55:39.828Z,99.90
2018-07-15T00:58:11.067Z,99.90
2018-07-15T01:00:47.168Z,99.90
2018-07-15T01:03:18.532Z,99.90
2018-07-15T01:05:49.736Z,99.90
2018-07-15T01:08:21.390Z,99.90
2018-07-15T01:18:25.033Z,99.90
2018-07-15T01:20:56.088Z,99.90
2018-07-15T01:23:27.488Z,99.90
2018-07-15T01:25:58.682Z,99.90
2018-07-15T01:28:29.842Z,99.90
2018-07-15T01:31:01.122Z,99.90
2018-07-15T01:33:32.250Z,99.90
2018-07-15T01:36:03.644Z,99.90
2018-07-15T01:38:35.025Z,99.90
2018-07-15T01:41:06.678Z,99.90
2018-07-15T01:48:39.419Z,99.90
2018-07-15T01:51:10.772Z,99.90
2018-07-15T01:53:42.168Z,99.90
2018-07-15T01:56:13.595Z,99.90
2018-07-15T01:58:44.920Z,99.90
2018-07-15T02:01:16.591Z,99.90
2018-07-15T02:03:47.895Z,99.90
2018-07-15T02:06:19.587Z,99.90
2018-07-15T02:11:21.918Z,99.90
2018-07-15T02:13:53.136Z,99.90
2018-07-15T02:16:24.326Z,99.90
2018-07-15T02:18:55.676Z,99.90
2018-07-15T02:21:27.112Z,99.90
2018-07-15T02:23:58.243Z,99.90
2018-07-15T02:26:29.847Z,99.90
2018-07-15T02:29:01.183Z,99.90
2018-07-15T02:31:32.649Z,99.90
2018-07-15T02:34:03.978Z,99.90
2018-07-15T02:36:35.375Z,99.90
2018-07-15T02:39:08.689Z,99.90
2018-07-15T02:41:40.382Z,99.90
2018-07-15T02:49:13.848Z,99.90
2018-07-15T02:51:45.063Z,99.90
2018-07-15T02:54:16.267Z,99.90
2018-07-15T02:56:47.451Z,99.90
2018-07-15T02:59:19.100Z,99.90
2018-07-15T03:01:50.453Z,99.90
2018-07-15T03:04:21.635Z,99.90
2018-07-15T03:06:53.147Z,99.90
2018-07-15T03:09:24.352Z,99.90
2018-07-15T03:11:55.442Z,99.90
2018-07-15T03:14:27.072Z,99.90
2018-07-15T03:19:29.638Z,99.90
2018-07-15T03:22:01.201Z,99.90
2018-07-15T03:24:32.334Z,99.90
2018-07-15T03:27:03.747Z,99.90
2018-07-15T03:29:34.892Z,99.90
2018-07-15T03:32:06.288Z,99.90
2018-07-15T03:34:37.438Z,99.90
2018-07-15T03:37:08.584Z,99.90
2018-07-15T03:39:39.661Z,99.90
2018-07-15T03:42:11.680Z,99.90
2018-07-15T03:44:42.879Z,99.90
2018-07-15T03:47:14.076Z,99.90
2018-07-15T03:49:45.684Z,99.90
2018-07-15T03:52:16.864Z,99.90
2018-07-15T03:54:48.025Z,99.90
2018-07-15T03:57:26.140Z,99.90
2018-07-15T03:59:58.111Z,99.90
2018-07-15T04:02:29.451Z,99.90
2018-07-15T04:05:00.796Z,99.90
2018-07-15T04:07:31.991Z,99.90
2018-07-15T04:10:03.271Z,99.90
2018-07-15T04:12:34.623Z,99.90
2018-07-15T04:15:05.881Z,99.90
2018-07-15T04:17:37.024Z,99.90
2018-07-15T04:20:08.564Z,99.90
2018-07-15T04:22:39.926Z,99.90
2018-07-15T04:25:11.360Z,99.90
2018-07-15T04:27:42.536Z,99.90
2018-07-15T04:30:13.932Z,99.90
2018-07-15T04:32:45.437Z,99.90
2018-07-15T04:35:17.231Z,99.90
2018-07-15T04:37:48.355Z,99.90
2018-07-15T04:40:19.827Z,99.90
2018-07-15T04:42:51.192Z,99.90
2018-07-15T04:45:22.276Z,99.90
2018-07-15T04:47:54.339Z,99.90
2018-07-15T04:50:25.875Z,99.90
2018-07-15T04:52:57.043Z,99.90
2018-07-15T04:55:28.375Z,99.90
2018-07-15T04:57:59.564Z,99.90
2018-07-15T05:00:30.775Z,99.90
2018-07-15T05:03:02.555Z,99.90
2018-07-15T05:05:34.705Z,99.90
2018-07-15T05:08:05.752Z,99.90
2018-07-15T05:10:37.161Z,99.90
2018-07-15T05:13:08.282Z,99.90
2018-07-15T05:15:39.311Z,99.90
2018-07-15T05:18:10.475Z,99.90
2018-07-15T05:20:41.667Z,99.90
2018-07-15T05:23:12.664Z,99.90
2018-07-15T05:25:43.892Z,99.90
2018-07-15T05:28:18.233Z,99.90
2018-07-15T05:30:49.630Z,99.90
2018-07-15T05:33:21.011Z,99.90
2018-07-15T05:35:52.341Z,99.90
2018-07-15T05:38:23.617Z,99.90
2018-07-15T05:40:54.995Z,99.90
2018-07-15T05:43:26.367Z,99.90
2018-07-15T05:45:57.711Z,99.90
2018-07-15T05:48:29.371Z,99.90
2018-07-15T05:51:00.737Z,99.90
2018-07-15T05:53:32.114Z,99.90
2018-07-15T05:56:03.460Z,99.90
2018-07-15T05:58:34.948Z,99.90
2018-07-15T06:01:06.892Z,99.90
2018-07-15T06:03:38.224Z,99.90
2018-07-15T06:06:10.083Z,99.90
2018-07-15T06:08:41.181Z,99.90
2018-07-15T06:11:12.373Z,99.90
2018-07-15T06:13:43.468Z,99.90
2018-07-15T06:16:15.615Z,99.90
2018-07-15T06:18:46.996Z,99.90
2018-07-15T06:21:18.398Z,99.90
2018-07-15T06:23:49.548Z,99.90
2018-07-15T06:26:21.000Z,99.90
2018-07-15T06:28:52.484Z,99.90
2018-07-15T06:31:23.680Z,99.90
2018-07-15T06:33:54.691Z,99.90
2018-07-15T06:36:25.987Z,99.90
2018-07-15T06:38:57.329Z,99.90
2018-07-15T06:41:28.720Z,99.90
2018-07-15T06:44:00.034Z,99.90
2018-07-15T06:46:31.290Z,99.90
2018-07-15T06:49:02.495Z,99.90
2018-07-15T06:51:33.619Z,99.90
2018-07-15T06:54:05.116Z,99.90
2018-07-15T06:56:36.551Z,99.90
2018-07-15T06:59:07.716Z,99.90
2018-07-15T07:01:39.047Z,99.90
2018-07-15T07:04:10.434Z,99.90
2018-07-15T07:06:41.750Z,99.90
2018-07-15T07:09:12.953Z,99.90
2018-07-15T07:11:44.110Z,99.90
2018-07-15T07:14:15.366Z,99.90
2018-07-15T07:16:46.712Z,99.90
2018-07-15T07:19:17.891Z,99.90
2018-07-15T07:21:49.142Z,99.90
2018-07-15T07:24:20.696Z,99.90
2018-07-15T07:26:52.132Z,99.90
2018-07-15T07:29:23.435Z,99.90
2018-07-15T07:31:54.725Z,99.90
2018-07-15T07:34:26.025Z,99.90
2018-07-15T07:36:57.491Z,99.90
2018-07-15T07:39:28.628Z,99.90
2018-07-15T07:41:59.998Z,99.90
2018-07-15T07:44:31.623Z,99.90
2018-07-15T07:47:03.166Z,99.90
2018-07-15T07:49:34.552Z,99.90
2018-07-15T07:52:05.775Z,99.90
2018-07-15T07:54:36.939Z,99.90
2018-07-15T07:57:08.403Z,99.90
2018-07-15T07:59:39.520Z,99.90
2018-07-15T08:02:10.971Z,99.90
2018-07-15T08:04:46.875Z,99.90
2018-07-15T08:07:18.233Z,99.90
2018-07-15T08:09:49.700Z,99.90
2018-07-15T08:12:20.980Z,99.90
2018-07-15T08:14:53.021Z,99.90
2018-07-15T08:17:24.357Z,99.90
2018-07-15T08:19:56.009Z,99.90
2018-07-15T08:22:27.400Z,99.90
2018-07-15T08:24:58.730Z,99.90
2018-07-15T08:27:30.363Z,99.90
2018-07-15T08:30:18.000Z,99.90
2018-07-15T08:32:49.285Z,99.90
2018-07-15T08:35:20.880Z,99.90
2018-07-15T08:37:52.398Z,99.90
2018-07-15T08:40:23.785Z,99.90
2018-07-15T08:42:55.150Z,99.90
2018-07-15T08:45:26.903Z,99.90
2018-07-15T08:47:57.900Z,99.90
2018-07-15T08:50:29.135Z,99.90
2018-07-15T08:53:00.502Z,99.90
2018-07-15T08:55:31.724Z,99.90
2018-07-15T08:58:03.076Z,99.90
2018-07-15T09:00:34.267Z,99.90
2018-07-15T09:03:05.533Z,99.90
2018-07-15T09:05:36.839Z,99.90
2018-07-15T09:08:08.287Z,99.90
2018-07-15T09:10:39.639Z,99.90
2018-07-15T09:13:10.912Z,99.90
2018-07-15T09:16:44.949Z,99.90
2018-07-15T09:19:22.986Z,99.90
2018-07-15T09:21:54.314Z,99.90
2018-07-15T09:24:25.591Z,96.70
2018-07-15T09:26:57.004Z,99.90
2018-07-15T09:29:29.010Z,99.90
2018-07-15T09:32:00.346Z,99.90
2018-07-15T09:34:31.596Z,99.90
2018-07-15T09:37:03.212Z,99.90
2018-07-15T09:39:34.704Z,99.90
2018-07-15T09:42:06.866Z,99.90
2018-07-15T09:44:38.858Z,98.20
2018-07-15T09:47:10.247Z,95.40
2018-07-15T09:49:41.940Z,99.90
2018-07-15T09:52:13.497Z,99.90
2018-07-15T09:54:44.811Z,99.90
2018-07-15T09:57:15.991Z,96.70
2018-07-15T09:59:47.889Z,98.90
2018-07-15T10:02:19.127Z,99.90
2018-07-15T10:04:50.352Z,99.90
2018-07-15T10:07:21.764Z,93.90
2018-07-15T10:09:52.956Z,98.00
2018-07-15T10:12:24.609Z,99.60
2018-07-15T10:14:55.706Z,98.60
2018-07-15T10:17:26.904Z,98.50
2018-07-15T10:19:58.260Z,96.80
2018-07-15T10:22:29.343Z,99.90
2018-07-15T10:25:01.041Z,99.90
2018-07-15T10:27:32.147Z,91.50
2018-07-15T10:30:03.252Z,89.00
2018-07-15T10:32:34.433Z,92.50
2018-07-15T10:35:05.867Z,92.90
2018-07-15T10:37:37.049Z,94.70
2018-07-15T10:40:08.488Z,97.70
2018-07-15T10:42:39.831Z,99.20
2018-07-15T10:45:11.125Z,98.40
2018-07-15T10:47:42.221Z,95.30
2018-07-15T10:50:13.623Z,94.00
2018-07-15T10:52:44.815Z,93.30
2018-07-15T10:55:16.059Z,95.30
2018-07-15T11:00:18.348Z,90.00
2018-07-15T11:07:51.528Z,88.50
2018-07-15T11:10:22.938Z,86.60
2018-07-15T11:12:54.113Z,76.60
2018-07-15T11:15:25.317Z,76.10
2018-07-15T11:17:56.500Z,72.20
2018-07-15T11:20:27.960Z,81.80
2018-07-15T11:22:59.267Z,85.70
2018-07-15T11:25:30.711Z,79.10
2018-07-15T11:28:02.100Z,80.80
2018-07-15T11:30:33.453Z,73.50
2018-07-15T11:33:04.867Z,71.50
2018-07-15T11:35:36.048Z,69.30
2018-07-15T11:38:07.837Z,69.70
2018-07-15T11:40:39.360Z,73.80
2018-07-15T11:43:10.568Z,71.80
2018-07-15T11:45:42.265Z,73.00
2018-07-15T11:48:13.552Z,74.30
2018-07-15T11:50:45.284Z,71.70
2018-07-15T11:53:16.328Z,69.90
2018-07-15T11:55:47.761Z,72.50
2018-07-15T11:58:19.132Z,69.50
2018-07-15T12:00:50.269Z,70.20
2018-07-15T12:03:21.494Z,64.20
2018-07-15T12:05:53.943Z,64.40
2018-07-15T12:08:25.030Z,58.70
2018-07-15T12:10:56.256Z,62.00
2018-07-15T12:13:27.631Z,61.60
2018-07-15T12:15:59.000Z,65.60
2018-07-15T12:18:30.259Z,68.20
2018-07-15T12:21:01.432Z,65.80
2018-07-15T12:23:32.607Z,66.50
2018-07-15T12:26:03.761Z,67.80
2018-07-15T12:28:35.734Z,65.30
2018-07-15T12:31:07.025Z,64.30
2018-07-15T12:33:38.321Z,63.30
2018-07-15T12:36:09.927Z,61.00
2018-07-15T12:38:41.583Z,62.10
2018-07-15T12:41:12.673Z,62.90
2018-07-15T12:43:43.866Z,61.60
2018-07-15T12:46:15.260Z,63.70
2018-07-15T12:48:46.756Z,61.60
2018-07-15T12:51:18.058Z,61.10
2018-07-15T12:53:49.471Z,61.80
2018-07-15T12:56:20.821Z,59.30
2018-07-15T12:58:52.323Z,59.80
2018-07-15T13:03:54.195Z,56.90
2018-07-15T13:06:26.067Z,58.20
2018-07-15T13:08:57.366Z,56.00
2018-07-15T13:11:28.700Z,59.30
2018-07-15T13:13:59.963Z,59.80
2018-07-15T13:16:31.340Z,57.20
2018-07-15T13:19:03.012Z,56.70
2018-07-15T13:21:34.348Z,56.60
2018-07-15T13:24:06.173Z,56.80
2018-07-15T13:26:37.300Z,56.70
2018-07-15T13:29:08.724Z,55.20
2018-07-15T13:31:40.019Z,53.60
2018-07-15T13:34:11.276Z,52.70
2018-07-15T13:36:44.044Z,53.50
2018-07-15T13:39:15.223Z,55.50
2018-07-15T13:41:46.680Z,56.40
2018-07-15T13:44:18.279Z,53.20
2018-07-15T13:46:49.372Z,56.30
2018-07-15T13:49:20.744Z,55.50
2018-07-15T13:51:52.147Z,55.30
2018-07-15T13:54:24.173Z,55.00
2018-07-15T13:56:55.753Z,50.00
2018-07-15T13:59:28.503Z,50.70
2018-07-15T14:01:59.849Z,50.10
2018-07-15T14:04:31.830Z,51.60
2018-07-15T14:07:03.271Z,50.80
2018-07-15T14:09:34.615Z,51.90
2018-07-15T14:12:05.902Z,51.00
2018-07-15T14:14:37.474Z,53.50
2018-07-15T14:17:08.834Z,53.10
2018-07-15T14:19:40.149Z,53.10
2018-07-15T14:22:11.396Z,54.00
2018-07-15T14:24:42.543Z,56.10
2018-07-15T14:27:13.857Z,56.10
2018-07-15T14:32:17.275Z,55.50
2018-07-15T14:34:48.655Z,55.90
2018-07-15T14:37:19.891Z,49.90
2018-07-15T14:39:50.898Z,54.10
2018-07-15T14:42:22.253Z,52.90
2018-07-15T14:44:53.480Z,49.90
2018-07-15T14:47:24.928Z,51.20
2018-07-15T14:49:56.532Z,53.10
2018-07-15T14:52:28.137Z,52.40
2018-07-15T14:57:30.120Z,52.10
2018-07-15T15:00:01.385Z,51.50
2018-07-15T15:02:32.580Z,55.40
2018-07-15T15:05:03.776Z,54.70
2018-07-15T15:07:34.971Z,53.00
2018-07-15T15:10:06.780Z,55.90
2018-07-15T15:12:38.111Z,53.20
2018-07-15T15:15:09.322Z,51.90
2018-07-15T15:17:40.913Z,52.60
2018-07-15T15:20:12.323Z,51.20
2018-07-15T15:22:43.681Z,53.20
2018-07-15T15:25:15.781Z,52.30
2018-07-15T15:27:47.033Z,52.50
2018-07-15T15:30:18.404Z,54.10
2018-07-15T15:32:49.928Z,51.90
2018-07-15T15:35:21.240Z,54.40
2018-07-15T15:37:54.869Z,56.10
2018-07-15T15:40:25.989Z,58.20
2018-07-15T15:42:57.371Z,56.00
2018-07-15T15:45:28.788Z,56.50
2018-07-15T15:48:00.134Z,56.50
2018-07-15T15:50:31.321Z,58.20
2018-07-15T15:53:02.684Z,57.20
2018-07-15T15:55:33.991Z,57.00
2018-07-15T15:58:05.231Z,55.00
2018-07-15T16:00:36.635Z,58.00
2018-07-15T16:03:08.477Z,54.20
2018-07-15T16:05:40.056Z,56.20
2018-07-15T16:08:11.438Z,57.40
2018-07-15T16:10:42.832Z,57.30
2018-07-15T16:13:14.626Z,56.20
2018-07-15T16:15:46.040Z,55.70
2018-07-15T16:18:19.132Z,55.20
2018-07-15T16:20:51.149Z,55.60
2018-07-15T16:23:22.598Z,56.60
2018-07-15T16:25:54.168Z,56.40
2018-07-15T16:28:25.517Z,55.90
2018-07-15T16:30:57.315Z,57.30
2018-07-15T16:33:28.730Z,56.80
2018-07-15T16:35:59.873Z,58.20
2018-07-15T16:38:31.518Z,57.30
2018-07-15T16:41:03.694Z,58.30
2018-07-15T16:43:34.831Z,54.90
2018-07-15T16:46:06.236Z,54.80
2018-07-15T16:48:37.568Z,55.60
2018-07-15T16:51:08.968Z,55.30
2018-07-15T16:53:40.368Z,56.80
2018-07-15T16:56:12.566Z,54.60
2018-07-15T16:58:43.901Z,54.00
2018-07-15T17:01:14.999Z,54.60
2018-07-15T17:03:46.295Z,53.70
2018-07-15T17:06:17.523Z,57.60
2018-07-15T17:08:49.092Z,58.00
2018-07-15T17:11:20.440Z,57.40
2018-07-15T17:13:51.434Z,59.40
2018-07-15T17:16:22.635Z,58.50
2018-07-15T17:18:53.763Z,58.50
2018-07-15T17:23:55.563Z,58.70
2018-07-15T17:26:26.964Z,57.50
2018-07-15T17:29:00.245Z,57.20
2018-07-15T17:31:31.589Z,58.60
2018-07-15T17:34:03.450Z,58.20
2018-07-15T17:36:34.767Z,58.70
2018-07-15T17:39:06.467Z,62.10
2018-07-15T17:41:37.502Z,62.50
2018-07-15T17:44:08.505Z,62.70
2018-07-15T17:46:40.154Z,62.50
2018-07-15T17:49:12.955Z,62.90
2018-07-15T17:51:44.286Z,63.40
2018-07-15T17:56:46.389Z,60.80
2018-07-15T18:01:48.434Z,61.70
2018-07-15T18:04:19.599Z,63.50
2018-07-15T18:06:50.829Z,64.50
2018-07-15T18:09:22.394Z,65.80
2018-07-15T18:11:53.590Z,66.80
2018-07-15T18:14:25.035Z,67.50
2018-07-15T18:16:56.408Z,66.60
2018-07-15T18:19:28.145Z,67.30
2018-07-15T18:22:03.974Z,68.10
2018-07-15T18:27:06.390Z,69.40
2018-07-15T18:29:37.623Z,68.30
2018-07-15T18:32:08.839Z,68.80
2018-07-15T18:34:40.196Z,70.20
2018-07-15T18:37:11.792Z,69.60
2018-07-15T18:39:43.703Z,70.10
2018-07-15T18:42:15.411Z,69.50
2018-07-15T18:44:46.956Z,70.50
2018-07-15T18:47:18.348Z,70.70
2018-07-15T18:49:49.506Z,71.30
2018-07-15T18:52:20.536Z,73.00
2018-07-15T18:54:51.988Z,73.30
2018-07-15T18:57:23.193Z,72.40
2018-07-15T18:59:55.307Z,72.00
2018-07-15T19:02:26.715Z,73.60
2018-07-15T19:04:58.682Z,73.60
2018-07-15T19:07:30.083Z,74.10
2018-07-15T19:10:01.464Z,74.60
2018-07-15T19:12:32.804Z,76.10
2018-07-15T19:15:04.311Z,76.00
2018-07-15T19:17:35.559Z,77.60
2018-07-15T19:20:07.016Z,77.20
2018-07-15T19:22:38.359Z,78.70
2018-07-15T19:25:10.183Z,77.50
2018-07-15T19:27:41.333Z,78.40
2018-07-15T19:30:12.512Z,78.90
2018-07-15T19:32:43.708Z,80.70
2018-07-15T19:35:14.977Z,81.80
2018-07-15T19:37:46.263Z,82.50
2018-07-15T19:40:17.464Z,83.20
2018-07-15T19:42:48.705Z,84.30
2018-07-15T19:45:20.055Z,88.60
2018-07-15T19:47:51.790Z,87.50
2018-07-15T19:50:23.006Z,90.10
2018-07-15T19:52:54.680Z,90.90
2018-07-15T19:55:26.103Z,92.20
2018-07-15T19:57:57.375Z,92.90
2018-07-15T20:00:28.396Z,93.90
2018-07-15T20:02:59.805Z,94.60
2018-07-15T20:05:31.299Z,95.80
2018-07-15T20:08:02.366Z,97.50
2018-07-15T20:10:33.558Z,98.70
2018-07-15T20:13:05.056Z,99.60
2018-07-15T20:18:07.226Z,99.90
2018-07-15T20:20:38.332Z,99.90
2018-07-15T20:23:09.684Z,99.90
2018-07-15T20:25:41.239Z,99.90
2018-07-15T20:28:12.466Z,99.90
2018-07-15T20:30:43.471Z,99.90
2018-07-15T20:33:14.777Z,99.90
2018-07-15T20:35:46.735Z,99.90
2018-07-15T20:38:18.296Z,99.90
2018-07-15T20:40:49.479Z,99.90
2018-07-15T20:43:20.627Z,99.90
2018-07-15T20:45:51.813Z,99.90
2018-07-15T20:48:23.197Z,99.90
2018-07-15T20:50:54.372Z,99.90
2018-07-15T20:53:25.665Z,99.90
2018-07-15T20:55:57.474Z,99.90
2018-07-15T20:58:28.677Z,99.90
2018-07-15T21:01:00.744Z,99.90
2018-07-15T21:03:33.189Z,99.90
2018-07-15T21:08:35.040Z,99.90
2018-07-15T21:11:06.082Z,99.90
2018-07-15T21:13:37.262Z,99.90
2018-07-15T21:16:14.823Z,99.90
2018-07-15T21:18:46.247Z,99.90
2018-07-15T21:23:48.813Z,99.90
2018-07-15T21:26:20.119Z,99.90
2018-07-15T21:28:51.348Z,99.90
2018-07-15T21:31:22.533Z,99.90
2018-07-15T21:33:53.908Z,99.90
2018-07-15T21:36:25.087Z,99.90
2018-07-15T21:38:56.448Z,99.90
2018-07-15T21:41:27.683Z,99.90
2018-07-15T21:43:59.083Z,99.90
2018-07-15T21:46:30.708Z,99.90
2018-07-15T21:50:05.188Z,99.90
2018-07-15T21:52:36.976Z,99.90
2018-07-15T21:55:08.974Z,99.90
2018-07-15T21:57:40.135Z,99.90
2018-07-15T22:00:11.945Z,99.90
2018-07-15T22:02:43.319Z,99.90
2018-07-15T22:05:14.915Z,99.90
2018-07-15T22:08:01.728Z,99.90
2018-07-15T22:10:45.980Z,99.90
2018-07-15T22:13:17.305Z,99.40
2018-07-15T22:15:48.691Z,99.50
2018-07-15T22:18:20.129Z,99.50
2018-07-15T22:20:51.478Z,99.00
2018-07-15T22:23:24.604Z,99.20
2018-07-15T22:25:56.018Z,99.40
2018-07-15T22:28:27.320Z,99.80
2018-07-15T22:30:58.538Z,99.90
2018-07-15T22:33:30.104Z,99.90
2018-07-15T22:36:01.419Z,99.90
2018-07-15T22:38:32.880Z,99.90
2018-07-15T22:41:04.572Z,99.90
2018-07-15T22:43:35.908Z,99.90
2018-07-15T22:46:10.503Z,99.90
2018-07-15T22:48:41.885Z,99.90
2018-07-15T22:51:13.336Z,99.90
2018-07-15T22:56:16.651Z,99.90
2018-07-15T22:58:48.025Z,99.90
2018-07-15T23:01:19.474Z,99.90
2018-07-15T23:06:22.197Z,99.90
2018-07-15T23:08:53.545Z,99.90
2018-07-15T23:11:25.891Z,99.90
2018-07-15T23:13:56.939Z,99.90
2018-07-15T23:16:29.164Z,99.90
2018-07-15T23:19:00.496Z,99.90
2018-07-15T23:21:31.696Z,99.90
2018-07-15T23:24:02.912Z,99.90
2018-07-15T23:26:34.271Z,99.90
2018-07-15T23:29:05.434Z,99.90
2018-07-15T23:31:36.816Z,99.90
2018-07-15T23:34:08.071Z,99.90
2018-07-15T23:36:39.255Z,99.90
2018-07-15T23:39:10.609Z,99.90
2018-07-15T23:41:41.975Z,99.90
2018-07-15T23:44:13.171Z,99.90
2018-07-15T23:46:44.376Z,99.90
2018-07-15T23:49:15.556Z,99.90
2018-07-15T23:51:46.961Z,99.90
2018-07-15T23:54:18.603Z,99.90
2018-07-15T23:56:49.917Z,99.90
